Time;durP1;ratioP1;P1;durP2;ratioP2;P2;SDS_P1;SDS_P2;PMS_P1;PMS_P2;Temp;Humidity;BMP_temperature;BMP_pressure;BME280_temperature;BME280_humidity;BME280_pressure;Samples;Min_cycle;Max_cycle;Signal;HPM_P1;HPM_P2
2022/12/12 00:01:58;;;;;;;31.80;17.90;;;;;;;-0.78;100.00;97481.50;5091111;28;20252;-78
2022/12/12 00:04:26;;;;;;;30.60;18.33;;;;;;;-0.76;100.00;97487.47;5091146;28;20216;-78
2022/12/12 00:06:52;;;;;;;36.60;19.13;;;;;;;-0.81;100.00;97484.22;5090917;28;20304;-78
2022/12/12 00:09:19;;;;;;;31.77;17.03;;;;;;;-0.77;100.00;97478.88;5090541;28;20555;-78
2022/12/12 00:11:45;;;;;;;30.70;17.83;;;;;;;-0.78;100.00;97477.19;5090667;28;20726;-78
2022/12/12 00:14:12;;;;;;;29.57;17.43;;;;;;;-0.82;100.00;97474.72;5091060;28;20202;-78
2022/12/12 00:16:39;;;;;;;32.03;18.43;;;;;;;-0.88;100.00;97475.78;5091033;28;20587;-78
2022/12/12 00:19:05;;;;;;;26.37;16.73;;;;;;;-0.93;100.00;97475.09;5090510;28;20977;-78
2022/12/12 00:21:33;;;;;;;30.33;17.17;;;;;;;-0.92;100.00;97474.19;5090626;28;20231;-78
2022/12/12 00:23:59;;;;;;;30.63;17.83;;;;;;;-0.98;100.00;97465.81;5090820;28;20612;-78
2022/12/12 00:26:27;;;;;;;30.30;16.60;;;;;;;-1.00;100.00;97473.63;5090885;28;20221;-78
2022/12/12 00:28:54;;;;;;;28.30;16.27;;;;;;;-0.97;100.00;97475.25;5090397;28;20205;-78
2022/12/12 00:31:21;;;;;;;32.30;17.13;;;;;;;-0.98;100.00;97483.94;5090673;28;20231;-78
2022/12/12 00:33:49;;;;;;;31.07;16.73;;;;;;;-1.01;100.00;97481.44;5092860;28;20237;-78
2022/12/12 00:36:16;;;;;;;28.60;16.80;;;;;;;-1.04;100.00;97482.41;5094379;28;20222;-78
2022/12/12 00:38:44;;;;;;;30.77;17.00;;;;;;;-1.08;100.00;97485.16;5094387;28;20229;-78
2022/12/12 00:41:10;;;;;;;29.87;17.17;;;;;;;-1.11;100.00;97474.91;5094160;28;20728;-78
2022/12/12 00:43:37;;;;;;;29.83;16.40;;;;;;;-1.09;100.00;97480.88;5094552;28;20693;-78
2022/12/12 00:46:04;;;;;;;26.97;14.90;;;;;;;-1.08;100.00;97474.78;5094490;28;20205;-79
2022/12/12 00:48:31;;;;;;;30.27;15.83;;;;;;;-1.05;100.00;97472.09;5094132;28;20213;-78
2022/12/12 00:50:57;;;;;;;23.13;14.37;;;;;;;-1.09;100.00;97480.88;5093812;28;20304;-78
2022/12/12 00:53:25;;;;;;;29.37;15.67;;;;;;;-1.05;100.00;97487.66;5094276;28;20589;-78
2022/12/12 00:55:59;;;;;;;29.90;16.37;;;;;;;-1.03;100.00;97480.66;5094167;28;20214;-78
2022/12/12 00:58:26;;;;;;;28.03;16.13;;;;;;;-1.02;100.00;97487.53;5093832;28;20212;-78
2022/12/12 01:00:53;;;;;;;26.43;16.13;;;;;;;-1.03;100.00;97480.66;5093639;28;20209;-79
2022/12/12 01:03:20;;;;;;;34.17;17.77;;;;;;;-0.99;100.00;97487.44;5093715;28;20704;-78
2022/12/12 01:05:47;;;;;;;27.23;15.60;;;;;;;-0.97;100.00;97486.50;5093834;28;20579;-78
2022/12/12 01:08:13;;;;;;;26.20;14.87;;;;;;;-0.99;100.00;97484.84;5093979;28;20210;-78
2022/12/12 01:10:40;;;;;;;30.70;17.03;;;;;;;-1.08;100.00;97487.75;5093627;28;20213;-78
2022/12/12 01:13:08;;;;;;;30.83;17.20;;;;;;;-0.95;100.00;97489.03;5093601;28;20228;-78
2022/12/12 01:15:35;;;;;;;28.30;15.93;;;;;;;-1.10;100.00;97480.00;5093699;28;20206;-78
2022/12/12 01:18:01;;;;;;;30.63;16.63;;;;;;;-1.12;100.00;97474.03;5093470;28;20673;-78
2022/12/12 01:20:28;;;;;;;29.47;15.87;;;;;;;-1.21;100.00;97486.47;5093351;28;20229;-78
2022/12/12 01:22:55;;;;;;;25.60;15.27;;;;;;;-1.24;100.00;97481.41;5093619;28;20244;-78
2022/12/12 01:25:22;;;;;;;24.93;15.43;;;;;;;-1.30;100.00;97476.41;5093752;28;20316;-78
2022/12/12 01:27:48;;;;;;;28.97;16.27;;;;;;;-1.27;100.00;97484.06;5093828;28;20215;-78
2022/12/12 01:30:19;;;;;;;28.70;15.57;;;;;;;-1.26;100.00;97475.41;5093108;28;20244;-78
2022/12/12 01:32:45;;;;;;;29.73;16.20;;;;;;;-1.23;100.00;97477.91;5093195;28;20607;-78
2022/12/12 01:35:12;;;;;;;28.03;15.40;;;;;;;-1.22;100.00;97474.41;5093246;28;20681;-78
2022/12/12 01:37:40;;;;;;;30.97;15.80;;;;;;;-1.27;100.00;97477.16;5093430;28;20353;-78
2022/12/12 01:40:12;;;;;;;27.47;15.73;;;;;;;-1.28;100.00;97474.59;5092786;28;20331;-78
2022/12/12 01:42:39;;;;;;;26.40;14.80;;;;;;;-1.30;100.00;97489.38;5093137;28;20228;-78
2022/12/12 01:45:06;;;;;;;28.07;15.20;;;;;;;-1.30;100.00;97491.97;5091948;28;20225;-78
2022/12/12 01:47:34;;;;;;;25.40;14.27;;;;;;;-1.29;100.00;97485.88;5093181;28;20220;-78
2022/12/12 01:50:04;;;;;;;26.57;14.33;;;;;;;-1.35;100.00;97491.25;5092603;28;20213;-78
2022/12/12 01:52:35;;;;;;;28.87;14.67;;;;;;;-1.38;100.00;97483.56;5092992;28;20233;-78
2022/12/12 01:55:05;;;;;;;26.93;15.03;;;;;;;-1.44;100.00;97487.22;5092992;28;20209;-78
2022/12/12 01:57:36;;;;;;;23.13;13.47;;;;;;;-1.52;100.00;97481.47;5092756;28;20218;-78
2022/12/12 02:00:07;;;;;;;25.50;14.03;;;;;;;-1.57;100.00;97495.44;5092219;28;20231;-78
2022/12/12 02:02:35;;;;;;;22.00;13.30;;;;;;;-1.68;100.00;97489.75;5092885;28;20605;-78
2022/12/12 02:05:06;;;;;;;27.97;14.17;;;;;;;-1.75;100.00;97483.91;5093016;28;20232;-78
2022/12/12 02:07:32;;;;;;;24.43;13.70;;;;;;;-1.90;100.00;97499.09;5092962;28;20204;-78
2022/12/12 02:09:59;;;;;;;28.53;14.70;;;;;;;-1.97;100.00;97495.81;5092209;28;20248;-78
2022/12/12 02:12:25;;;;;;;26.00;14.20;;;;;;;-2.11;100.00;97510.91;5092440;28;20239;-78
2022/12/12 02:14:53;;;;;;;26.53;14.13;;;;;;;-2.19;100.00;97506.88;5092419;28;20670;-78
2022/12/12 02:17:35;;;;;;;24.97;13.67;;;;;;;-2.28;100.00;97512.31;5092356;28;20218;-78
2022/12/12 02:20:40;;;;;;;28.63;16.20;;;;;;;-2.39;100.00;97529.88;5091921;28;20223;-78
2022/12/12 02:23:49;;;;;;;27.33;14.23;;;;;;;-2.44;100.00;97521.41;5089877;28;20216;-78
2022/12/12 02:26:45;;;;;;;22.30;11.90;;;;;;;-2.48;100.00;97535.28;5044357;28;20220;-78
2022/12/12 02:29:38;;;;;;;24.13;13.33;;;;;;;-2.50;100.00;97527.56;5092152;28;20205;-78
2022/12/12 02:32:12;;;;;;;22.47;11.90;;;;;;;-2.62;100.00;97520.19;5075113;28;20295;-78
2022/12/12 02:34:48;;;;;;;25.43;13.33;;;;;;;-2.67;100.00;97527.22;5092134;28;20669;-78
2022/12/12 02:37:29;;;;;;;24.07;13.60;;;;;;;-2.74;100.00;97527.41;5092099;28;20578;-77
2022/12/12 02:40:03;;;;;;;25.03;13.43;;;;;;;-2.52;100.00;97524.19;5091715;28;20225;-78
2022/12/12 02:42:39;;;;;;;24.57;13.40;;;;;;;-2.56;100.00;97532.94;5092138;28;20656;-78
2022/12/12 02:45:13;;;;;;;22.43;12.47;;;;;;;-2.54;100.00;97535.47;5091988;28;20347;-78
2022/12/12 02:47:46;;;;;;;23.70;12.40;;;;;;;-2.48;100.00;97538.75;5091823;28;20208;-78
2022/12/12 02:50:17;;;;;;;25.07;13.83;;;;;;;-2.60;100.00;97540.81;5091809;28;20232;-78
2022/12/12 02:52:46;;;;;;;23.67;13.17;;;;;;;-2.70;100.00;97539.38;5091743;28;20234;-78
2022/12/12 02:55:13;;;;;;;25.90;13.27;;;;;;;-2.83;100.00;97536.25;5091758;28;20209;-78
2022/12/12 02:57:40;;;;;;;28.77;14.33;;;;;;;-2.74;100.00;97548.09;5091649;28;20223;-78
2022/12/12 03:00:10;;;;;;;27.10;14.53;;;;;;;-2.65;100.00;97545.25;5091319;28;20319;-78
2022/12/12 03:08:48;;;;;;;26.37;13.57;;;;;;;-2.86;100.00;97548.41;5091598;28;20606;-79
2022/12/12 03:11:24;;;;;;;25.83;15.47;;;;;;;-3.04;100.00;97548.88;5091519;28;20239;-79
2022/12/12 03:13:54;;;;;;;24.43;13.23;;;;;;;-3.14;100.00;97553.44;5091593;28;20213;-78
2022/12/12 03:16:27;;;;;;;27.53;13.00;;;;;;;-3.26;100.00;97542.53;5091526;28;20208;-78
2022/12/12 03:19:00;;;;;;;26.67;13.90;;;;;;;-3.31;100.00;97545.25;5091153;28;20701;-78
2022/12/12 03:21:35;;;;;;;23.97;14.03;;;;;;;-3.24;100.00;97551.13;5091611;28;20232;-78
2022/12/12 03:24:06;;;;;;;28.77;14.47;;;;;;;-3.12;100.00;97550.81;5091824;28;20211;-78
2022/12/12 03:26:40;;;;;;;29.30;14.93;;;;;;;-3.15;100.00;97549.16;5091321;28;20212;-78
2022/12/12 03:29:11;;;;;;;30.67;16.37;;;;;;;-3.10;100.00;97543.88;5090971;28;20221;-78
2022/12/12 03:31:42;;;;;;;27.03;15.93;;;;;;;-3.08;100.00;97547.25;5091150;28;20228;-78
2022/12/12 03:34:15;;;;;;;31.50;15.57;;;;;;;-3.08;100.00;97550.69;5091396;28;20209;-78
2022/12/12 03:36:48;;;;;;;29.20;16.23;;;;;;;-3.12;100.00;97543.91;5091346;28;20212;-78
2022/12/12 03:39:21;;;;;;;29.53;15.97;;;;;;;-3.14;100.00;97547.41;5090997;28;20212;-78
2022/12/12 03:41:54;;;;;;;31.73;16.70;;;;;;;-3.16;100.00;97547.47;5091129;28;20236;-78
2022/12/12 03:44:26;;;;;;;30.20;15.63;;;;;;;-3.21;100.00;97553.63;5091206;28;20207;-78
2022/12/12 03:46:57;;;;;;;30.53;14.80;;;;;;;-3.17;100.00;97560.41;5091097;28;20217;-78
2022/12/12 03:49:29;;;;;;;27.97;14.43;;;;;;;-3.17;100.00;97557.81;5090971;28;20204;-78
2022/12/12 03:52:01;;;;;;;27.10;14.77;;;;;;;-3.19;100.00;97549.28;5091048;28;20611;-78
2022/12/12 03:54:33;;;;;;;26.77;14.83;;;;;;;-3.26;100.00;97547.72;5091054;28;20211;-78
2022/12/12 03:57:05;;;;;;;26.03;14.23;;;;;;;-3.23;100.00;97548.50;5091006;28;20220;-78
2022/12/12 03:59:36;;;;;;;29.73;15.40;;;;;;;-3.25;100.00;97549.44;5090759;28;20235;-78
2022/12/12 04:02:12;;;;;;;28.63;16.37;;;;;;;-3.16;100.00;97557.81;5090952;28;20225;-78
2022/12/12 04:04:46;;;;;;;28.60;15.57;;;;;;;-3.15;100.00;97556.03;5090902;28;20217;-78
2022/12/12 04:07:17;;;;;;;29.43;15.23;;;;;;;-3.09;100.00;97561.94;5091219;28;20209;-78
2022/12/12 04:15:45;;;;;;;32.63;16.90;;;;;;;-2.94;100.00;97563.28;5094931;28;20637;-78
2022/12/12 04:18:17;;;;;;;27.93;15.73;;;;;;;-2.84;100.00;97559.56;5094864;28;20215;-78
2022/12/12 04:23:49;;;;;;;26.03;14.37;;;;;;;-2.76;100.00;97563.63;5094782;28;20204;-78
2022/12/12 04:26:39;;;;;;;27.27;13.20;;;;;;;-2.74;100.00;97558.44;5094842;28;20203;-78
2022/12/12 04:29:16;;;;;;;20.43;12.23;;;;;;;-2.80;100.00;97558.59;5094290;28;20213;-78
2022/12/12 04:31:50;;;;;;;24.63;12.90;;;;;;;-2.80;100.00;97553.41;5094432;28;20587;-78
2022/12/12 04:34:24;;;;;;;26.23;14.33;;;;;;;-2.76;100.00;97565.38;5094920;28;20243;-78
2022/12/12 04:36:53;;;;;;;25.17;13.70;;;;;;;-2.58;100.00;97564.91;5094608;28;20251;-78
2022/12/12 04:39:21;;;;;;;22.27;12.27;;;;;;;-2.55;100.00;97559.63;5094043;28;20224;-78
2022/12/12 04:41:51;;;;;;;20.13;11.43;;;;;;;-2.53;100.00;97563.03;5094345;28;20264;-78
2022/12/12 04:44:21;;;;;;;22.20;11.87;;;;;;;-2.50;100.00;97565.53;5094267;28;20205;-78
2022/12/12 04:46:51;;;;;;;22.20;11.70;;;;;;;-2.56;100.00;97568.28;5094414;28;20210;-78
2022/12/12 04:49:20;;;;;;;20.07;11.97;;;;;;;-2.60;100.00;97569.25;5094171;28;20200;-78
2022/12/12 04:51:49;;;;;;;20.50;11.63;;;;;;;-2.58;100.00;97572.66;5094051;28;20618;-78
2022/12/12 04:54:23;;;;;;;21.33;11.93;;;;;;;-2.65;100.00;97568.53;5094068;28;20679;-78
2022/12/12 04:56:54;;;;;;;24.17;12.17;;;;;;;-2.71;100.00;97569.53;5093983;28;20201;-79
2022/12/12 04:59:21;;;;;;;21.13;11.77;;;;;;;-2.59;100.00;97573.53;5093779;28;20208;-78
2022/12/12 05:01:53;;;;;;;21.43;13.00;;;;;;;-2.61;100.00;97564.97;5093917;28;20236;-78
2022/12/12 05:04:27;;;;;;;18.20;10.97;;;;;;;-2.57;100.00;97567.44;5094027;28;20220;-78
2022/12/12 05:06:59;;;;;;;21.90;12.57;;;;;;;-2.58;100.00;97570.09;5093986;28;20625;-78
2022/12/12 05:09:27;;;;;;;24.17;13.60;;;;;;;-2.52;100.00;97570.75;5093663;28;20204;-78
2022/12/12 05:11:54;;;;;;;22.30;13.33;;;;;;;-2.47;100.00;97580.97;5109128;22;20242;-84
2022/12/12 05:14:21;;;;;;;26.17;12.93;;;;;;;-2.47;100.00;97573.19;5093754;28;20216;-83
2022/12/12 05:16:52;;;;;;;21.17;13.67;;;;;;;-2.49;100.00;97565.50;5093582;28;20214;-82
2022/12/12 05:19:18;;;;;;;24.70;12.77;;;;;;;-2.49;100.00;97570.69;5093221;28;20204;-84
2022/12/12 05:21:45;;;;;;;25.40;12.47;;;;;;;-2.47;100.00;97571.47;5093363;28;20255;-84
2022/12/12 05:24:11;;;;;;;23.40;13.37;;;;;;;-2.42;100.00;97571.34;5093943;28;20291;-84
2022/12/12 05:26:39;;;;;;;23.23;14.03;;;;;;;-2.22;100.00;97574.22;5093460;28;20213;-83
2022/12/12 05:29:06;;;;;;;24.50;13.40;;;;;;;-2.20;100.00;97575.03;5092817;28;20676;-83
2022/12/12 05:31:33;;;;;;;24.03;13.43;;;;;;;-2.19;100.00;97580.19;5093292;28;20412;-83
2022/12/12 05:33:59;;;;;;;24.97;14.27;;;;;;;-2.23;100.00;97572.53;5093240;28;20208;-83
2022/12/12 05:36:26;;;;;;;23.90;13.77;;;;;;;-2.25;100.00;97576.91;5093161;28;20207;-83
2022/12/12 05:38:52;;;;;;;22.23;13.00;;;;;;;-2.34;100.00;97580.59;5092979;28;20204;-83
2022/12/12 05:41:19;;;;;;;22.20;12.70;;;;;;;-2.28;100.00;97579.59;5093101;28;20229;-84
2022/12/12 05:43:47;;;;;;;23.53;13.23;;;;;;;-2.34;100.00;97579.78;5092998;28;20247;-83
2022/12/12 05:46:13;;;;;;;27.77;14.60;;;;;;;-2.26;100.00;97582.97;5092918;28;20243;-83
2022/12/12 05:48:40;;;;;;;25.77;14.10;;;;;;;-2.33;100.00;97584.03;5092773;28;20205;-83
2022/12/12 05:51:07;;;;;;;22.07;12.93;;;;;;;-2.44;100.00;97583.47;5092739;28;20562;-83
2022/12/12 05:53:33;;;;;;;27.27;14.53;;;;;;;-2.38;100.00;97591.09;5093044;28;20207;-83
2022/12/12 05:56:05;;;;;;;26.10;14.47;;;;;;;-2.33;100.00;97591.81;5092868;28;20675;-83
2022/12/12 05:58:31;;;;;;;24.53;13.53;;;;;;;-2.38;100.00;97596.25;5092899;28;20305;-83
2022/12/12 06:01:02;;;;;;;25.30;14.50;;;;;;;-2.42;100.00;97597.22;5092544;28;20235;-83
2022/12/12 06:03:29;;;;;;;29.13;15.93;;;;;;;-2.40;100.00;97596.28;5092572;28;20195;-83
2022/12/12 06:05:55;;;;;;;26.20;14.90;;;;;;;-2.43;100.00;97595.53;5092923;28;20208;-83
2022/12/12 06:08:22;;;;;;;28.10;16.20;;;;;;;-2.35;100.00;97598.75;5092819;28;20215;-83
2022/12/12 06:10:48;;;;;;;25.83;15.33;;;;;;;-2.39;100.00;97605.75;5092441;28;20199;-83
2022/12/12 06:13:15;;;;;;;28.23;16.00;;;;;;;-2.38;100.00;97606.59;5092284;28;20252;-83
2022/12/12 06:15:41;;;;;;;25.43;15.10;;;;;;;-2.43;100.00;97601.56;5092278;28;20208;-83
2022/12/12 06:18:11;;;;;;;27.50;14.50;;;;;;;-2.42;100.00;97607.56;5092512;28;20214;-83
2022/12/12 06:20:37;;;;;;;30.97;16.03;;;;;;;-2.37;100.00;97613.47;5092020;28;20727;-83
2022/12/12 06:23:04;;;;;;;25.40;14.67;;;;;;;-2.43;100.00;97611.06;5092593;28;20342;-83
2022/12/12 06:25:31;;;;;;;30.33;16.53;;;;;;;-2.51;100.00;97613.00;5092476;28;20209;-83
2022/12/12 06:27:57;;;;;;;27.80;14.60;;;;;;;-2.51;100.00;97613.00;5092376;28;20222;-83
2022/12/12 06:30:24;;;;;;;27.37;13.97;;;;;;;-2.52;100.00;97616.47;5091383;28;20663;-83
2022/12/12 06:32:50;;;;;;;27.47;15.23;;;;;;;-2.44;100.00;97617.13;5092519;28;20235;-83
2022/12/12 06:35:18;;;;;;;30.77;15.23;;;;;;;-2.40;100.00;97627.34;5092399;28;20629;-83
2022/12/12 06:37:47;;;;;;;28.27;15.60;;;;;;;-2.40;100.00;97626.50;5092109;28;20698;-83
2022/12/12 06:40:14;;;;;;;30.37;16.73;;;;;;;-2.35;100.00;97624.63;5091724;28;20271;-83
2022/12/12 06:42:40;;;;;;;25.27;14.10;;;;;;;-2.42;100.00;97628.25;5091915;28;20229;-83
2022/12/12 06:45:07;;;;;;;28.37;16.13;;;;;;;-2.36;100.00;97628.97;5091775;28;20212;-83
2022/12/12 06:47:34;;;;;;;28.97;16.03;;;;;;;-2.35;100.00;97625.47;5092099;28;20205;-84
2022/12/12 06:50:00;;;;;;;30.17;16.87;;;;;;;-2.37;100.00;97626.41;5092069;28;20212;-83
2022/12/12 06:52:28;;;;;;;30.27;17.33;;;;;;;-2.35;100.00;97632.38;5092439;28;20235;-84
2022/12/12 06:54:55;;;;;;;30.07;16.73;;;;;;;-2.43;100.00;97622.25;5092221;28;20215;-84
2022/12/12 06:57:21;;;;;;;32.00;15.57;;;;;;;-2.43;100.00;97629.16;5092008;28;20216;-84
2022/12/12 06:59:49;;;;;;;26.70;14.80;;;;;;;-2.38;100.00;97629.91;5091562;28;20224;-83
2022/12/12 07:02:16;;;;;;;29.17;15.77;;;;;;;-2.41;100.00;97636.00;5091659;28;20232;-83
2022/12/12 07:04:42;;;;;;;30.23;16.60;;;;;;;-2.44;100.00;97637.81;5091905;28;20570;-83
2022/12/12 07:07:09;;;;;;;28.00;15.63;;;;;;;-2.44;100.00;97640.41;5091583;28;20208;-83
2022/12/12 07:09:37;;;;;;;29.40;16.17;;;;;;;-2.38;100.00;97640.25;5091462;28;20701;-83
2022/12/12 07:12:04;;;;;;;32.07;17.50;;;;;;;-2.36;100.00;97638.44;5091080;28;20287;-83
2022/12/12 07:14:30;;;;;;;29.13;16.10;;;;;;;-2.42;100.00;97639.47;5091675;28;20211;-83
2022/12/12 07:16:57;;;;;;;32.93;18.23;;;;;;;-2.45;100.00;97644.72;5092051;28;20216;-83
2022/12/12 07:19:25;;;;;;;29.33;16.20;;;;;;;-2.45;100.00;97639.53;5091669;28;20310;-83
2022/12/12 07:21:52;;;;;;;32.00;17.97;;;;;;;-2.46;100.00;97639.59;5091793;28;20613;-83
2022/12/12 07:24:18;;;;;;;29.80;16.47;;;;;;;-2.48;100.00;97649.13;5094159;28;20216;-83
2022/12/12 07:26:46;;;;;;;31.20;17.47;;;;;;;-2.50;100.00;97646.56;5091319;28;20213;-83
2022/12/12 07:29:12;;;;;;;32.30;16.67;;;;;;;-2.47;100.00;97661.16;5090882;28;20629;-83
2022/12/12 07:31:39;;;;;;;33.00;17.77;;;;;;;-2.42;100.00;97656.72;5091464;28;20227;-84
2022/12/12 07:34:05;;;;;;;29.87;17.60;;;;;;;-2.43;100.00;97657.63;5091170;28;20217;-83
2022/12/12 07:36:32;;;;;;;31.03;16.30;;;;;;;-2.41;100.00;97663.59;5091212;28;20209;-84
2022/12/12 07:38:58;;;;;;;33.23;18.07;;;;;;;-2.39;100.00;97664.41;5090822;28;20213;-83
2022/12/12 07:41:25;;;;;;;29.10;17.30;;;;;;;-2.39;100.00;97664.41;5091329;28;20588;-84
2022/12/12 07:43:53;;;;;;;33.17;18.50;;;;;;;-2.32;100.00;97671.13;5093791;28;20208;-82
2022/12/12 07:46:21;;;;;;;28.90;16.23;;;;;;;-2.31;100.00;97668.50;5095603;28;20591;-81
2022/12/12 07:48:51;;;;;;;32.90;18.13;;;;;;;-2.34;100.00;97668.56;5095018;28;20226;-84
2022/12/12 07:51:18;;;;;;;32.53;18.10;;;;;;;-2.38;100.00;97661.78;5095073;28;20209;-79
2022/12/12 07:53:44;;;;;;;32.20;18.17;;;;;;;-2.22;100.00;97668.25;5095384;28;20239;-84
2022/12/12 07:56:16;;;;;;;30.00;17.03;;;;;;;-2.27;100.00;97666.69;5095424;28;20206;-86
2022/12/12 07:58:43;;;;;;;28.63;17.40;;;;;;;-2.23;100.00;97681.22;5095299;28;20211;-85
2022/12/12 08:01:14;;;;;;;34.57;17.40;;;;;;;-2.25;100.00;97670.06;5095157;28;20320;-85
2022/12/12 08:03:41;;;;;;;26.20;16.33;;;;;;;-2.26;100.00;97676.97;5095226;28;20199;-84
2022/12/12 08:06:07;;;;;;;30.83;18.40;;;;;;;-2.29;100.00;97676.22;5094972;28;20352;-85
2022/12/12 08:08:34;;;;;;;32.20;16.93;;;;;;;-2.28;100.00;97677.94;5094732;28;20208;-86
2022/12/12 08:11:05;;;;;;;29.20;17.10;;;;;;;-2.25;100.00;97675.25;5095359;28;20198;-83
2022/12/12 08:13:35;;;;;;;32.03;17.17;;;;;;;-2.22;100.00;97685.50;5094905;28;20692;-86
2022/12/12 08:16:03;;;;;;;29.93;17.40;;;;;;;-2.21;100.00;97676.88;5095149;28;20236;-84
2022/12/12 08:18:31;;;;;;;31.57;18.07;;;;;;;-2.18;100.00;97689.72;5095006;28;20579;-84
2022/12/12 08:20:57;;;;;;;30.10;17.20;;;;;;;-2.15;100.00;97689.66;5094386;28;20234;-84
2022/12/12 08:23:24;;;;;;;33.50;17.47;;;;;;;-2.14;100.00;97692.19;5094785;28;20737;-82
2022/12/12 08:25:51;;;;;;;28.30;17.63;;;;;;;-2.07;100.00;97693.75;5094901;28;20214;-82
2022/12/12 08:28:17;;;;;;;32.20;17.43;;;;;;;-2.03;100.00;97691.94;5094975;28;20220;-82
2022/12/12 08:30:48;;;;;;;26.17;15.60;;;;;;;-1.98;100.00;97697.81;5094564;28;20214;-83
2022/12/12 08:33:15;;;;;;;31.40;17.50;;;;;;;-1.88;100.00;97694.94;5094943;28;20233;-85
2022/12/12 08:35:43;;;;;;;32.93;19.53;;;;;;;-1.86;100.00;97697.47;5095026;28;20220;-82
2022/12/12 08:38:09;;;;;;;30.50;17.30;;;;;;;-1.82;100.00;97696.50;5094777;28;20212;-86
2022/12/12 08:40:38;;;;;;;29.80;17.90;;;;;;;-1.78;100.00;97700.72;5094525;28;20583;-81
2022/12/12 08:43:05;;;;;;;33.60;19.37;;;;;;;-1.74;100.00;97702.31;5094605;28;20584;-84
2022/12/12 08:45:31;;;;;;;35.47;18.90;;;;;;;-1.66;100.00;97705.56;5094430;28;20673;-84
2022/12/12 08:47:58;;;;;;;33.33;17.87;;;;;;;-1.64;100.00;97703.75;5094580;28;20217;-85
2022/12/12 08:50:25;;;;;;;32.23;17.13;;;;;;;-1.58;100.00;97698.41;5094240;28;20261;-83
2022/12/12 08:52:53;;;;;;;32.17;17.33;;;;;;;-1.51;100.00;97695.59;5094530;28;20721;-83
2022/12/12 08:55:19;;;;;;;27.77;15.50;;;;;;;-1.49;100.00;97690.34;5094284;28;20234;-82
2022/12/12 08:57:46;;;;;;;30.83;17.03;;;;;;;-1.47;100.00;97691.19;5095011;28;20226;-84
2022/12/12 09:00:13;;;;;;;31.30;17.50;;;;;;;-1.39;100.00;97694.38;5094399;28;20210;-83
2022/12/12 09:02:41;;;;;;;33.00;17.90;;;;;;;-1.35;100.00;97686.47;5094257;28;20237;-84
2022/12/12 09:05:08;;;;;;;30.17;17.87;;;;;;;-1.32;100.00;97691.59;5094651;28;20218;-80
2022/12/12 09:07:36;;;;;;;30.87;16.90;;;;;;;-1.26;100.00;97700.91;5094075;28;20213;-85
2022/12/12 09:10:05;;;;;;;31.40;17.60;;;;;;;-1.18;100.00;97693.78;5094180;28;20205;-84
2022/12/12 09:12:31;;;;;;;29.93;17.40;;;;;;;-1.15;100.00;97698.84;5094059;28;20230;-83
2022/12/12 09:14:58;;;;;;;31.40;19.20;;;;;;;-1.04;100.00;97692.44;5094169;28;20210;-84
2022/12/12 09:17:25;;;;;;;28.70;17.50;;;;;;;-1.05;100.00;97687.31;5094271;28;20213;-83
2022/12/12 09:19:51;;;;;;;28.10;17.23;;;;;;;-1.03;100.00;97691.56;5093846;28;20214;-84
2022/12/12 09:22:18;;;;;;;30.17;17.83;;;;;;;-1.01;100.00;97696.69;5094088;28;20600;-83
2022/12/12 09:24:44;;;;;;;33.83;18.50;;;;;;;-1.03;100.00;97703.66;5093787;28;20212;-85
2022/12/12 09:27:12;;;;;;;29.67;16.97;;;;;;;-1.03;100.00;97703.66;5094064;28;20230;-84
2022/12/12 09:29:39;;;;;;;30.03;18.13;;;;;;;-1.01;100.00;97707.91;5093745;28;20209;-85
2022/12/12 09:32:06;;;;;;;29.17;16.47;;;;;;;-0.95;100.00;97707.72;5094072;28;20223;-84
2022/12/12 09:34:32;;;;;;;28.83;17.37;;;;;;;-0.88;100.00;97698.00;5094207;28;20206;-83
2022/12/12 09:36:59;;;;;;;29.67;16.97;;;;;;;-0.84;100.00;97709.97;5093780;28;20646;-85
2022/12/12 09:39:26;;;;;;;31.87;17.03;;;;;;;-0.82;100.00;97703.00;5091816;28;20683;-88
2022/12/12 09:41:52;;;;;;;29.03;16.73;;;;;;;-0.83;100.00;97702.16;5088882;28;20238;-82
2022/12/12 09:44:21;;;;;;;33.47;18.50;;;;;;;-0.84;100.00;97694.41;5092788;28;20213;-88
2022/12/12 09:46:52;;;;;;;34.05;21.55;;;;;;;-0.79;100.00;97700.31;5097611;28;20473;-84
2022/12/12 09:49:26;;;;;;;29.07;18.07;;;;;;;-0.80;100.00;97698.63;5098064;28;20213;-83
2022/12/12 09:51:54;;;;;;;26.50;16.53;;;;;;;-0.83;100.00;97701.28;5093171;28;20223;-81
2022/12/12 09:54:23;;;;;;;30.47;17.80;;;;;;;-0.85;100.00;97693.59;5092999;28;20209;-83
2022/12/12 09:57:04;;;;;;;29.43;17.37;;;;;;;-0.85;100.00;97693.59;5093307;28;20682;-83
2022/12/12 09:59:40;;;;;;;30.47;16.60;;;;;;;-0.94;100.00;97693.00;5092919;28;20251;-83
2022/12/12 10:02:29;;;;;;;28.57;14.97;;;;;;;-1.04;100.00;97686.41;5092918;28;20233;-84
2022/12/12 10:05:01;;;;;;;27.63;16.03;;;;;;;-1.15;100.00;97688.47;5092647;28;20216;-83
2022/12/12 10:07:35;;;;;;;30.00;17.13;;;;;;;-1.22;100.00;97686.97;5092515;28;20209;-81
2022/12/12 10:10:23;;;;;;;25.87;16.27;;;;;;;-1.37;100.00;97692.59;5092653;28;20231;-80
2022/12/12 10:12:51;;;;;;;28.90;15.93;;;;;;;-1.50;100.00;97692.13;5092244;28;20238;-80
2022/12/12 10:15:28;;;;;;;30.13;16.70;;;;;;;-1.58;100.00;97706.19;5091392;28;20656;-79
2022/12/12 10:17:59;;;;;;;28.67;16.27;;;;;;;-1.71;100.00;97702.25;5092795;28;20525;-81
2022/12/12 10:20:28;;;;;;;28.53;15.80;;;;;;;-1.80;100.00;97694.72;5091669;28;20209;-81
2022/12/12 10:23:00;;;;;;;29.57;17.10;;;;;;;-1.87;100.00;97700.97;5092421;28;20240;-81
2022/12/12 10:25:39;;;;;;;27.53;16.70;;;;;;;-1.96;100.00;97706.41;5092202;28;20209;-81
2022/12/12 10:28:11;;;;;;;29.73;15.23;;;;;;;-1.95;100.00;97708.09;5091304;28;20213;-81
2022/12/12 10:30:55;;;;;;;29.50;17.33;;;;;;;-1.89;100.00;97710.50;5092252;28;20559;-81
2022/12/12 10:33:29;;;;;;;33.50;17.87;;;;;;;-1.81;100.00;97717.19;5091090;28;20762;-81
2022/12/12 10:36:02;;;;;;;28.13;16.77;;;;;;;-1.84;100.00;97717.25;5092137;28;20308;-81
2022/12/12 10:38:44;;;;;;;33.63;19.33;;;;;;;-1.75;100.00;97716.16;5091072;28;20218;-81
2022/12/12 10:41:18;;;;;;;30.57;17.50;;;;;;;-1.70;100.00;97719.47;5092124;28;20221;-81
2022/12/12 10:43:53;;;;;;;33.60;17.77;;;;;;;-1.65;100.00;97715.03;5091907;28;20229;-81
2022/12/12 10:46:28;;;;;;;25.30;16.67;;;;;;;-1.73;100.00;97709.22;5091413;28;20206;-82
2022/12/12 10:48:54;;;;;;;36.13;18.73;;;;;;;-1.71;100.00;97707.41;5092043;28;20199;-81
2022/12/12 10:51:23;;;;;;;24.57;15.77;;;;;;;-1.71;100.00;97702.25;5090418;28;20203;-81
2022/12/12 10:53:50;;;;;;;29.53;16.80;;;;;;;-1.67;100.00;97703.88;5092085;28;20207;-81
2022/12/12 10:56:21;;;;;;;28.37;16.53;;;;;;;-1.67;100.00;97698.69;5090959;28;20214;-81
2022/12/12 10:58:53;;;;;;;31.27;17.73;;;;;;;-1.65;100.00;97699.47;5091525;28;20283;-81
2022/12/12 11:01:27;;;;;;;28.53;16.07;;;;;;;-1.62;100.00;97692.47;5092112;28;20327;-83
2022/12/12 11:03:56;;;;;;;29.30;16.80;;;;;;;-1.50;100.00;97686.06;5092153;28;20235;-85
2022/12/12 11:06:30;;;;;;;34.63;17.03;;;;;;;-1.45;100.00;97686.78;5092108;28;20275;-83
2022/12/12 11:08:59;;;;;;;30.23;16.07;;;;;;;-1.42;100.00;97686.72;5089230;28;20244;-79
2022/12/12 11:14:20;;;;;;;28.53;16.50;;;;;;;-1.32;100.00;97690.72;5089238;28;20286;-77
2022/12/12 11:16:48;;;;;;;27.43;16.33;;;;;;;-1.36;100.00;97696.91;5092037;28;20209;-76
2022/12/12 11:19:18;;;;;;;28.57;16.80;;;;;;;-1.35;100.00;97686.47;5100561;28;20225;-76
2022/12/12 11:21:45;;;;;;;26.63;16.33;;;;;;;-1.37;100.00;97687.41;5110796;28;20270;-77
2022/12/12 11:24:15;;;;;;;31.93;18.37;;;;;;;-1.30;100.00;97676.00;5111390;28;20204;-80
2022/12/12 11:26:46;;;;;;;26.60;15.70;;;;;;;-1.26;100.00;97669.81;5111084;28;20603;-77
2022/12/12 11:29:28;;;;;;;31.03;16.83;;;;;;;-1.26;100.00;97680.16;5110475;28;20237;-75
2022/12/12 11:31:57;;;;;;;28.07;16.93;;;;;;;-1.19;100.00;97676.50;5110780;28;20253;-76
2022/12/12 11:34:26;;;;;;;30.03;17.17;;;;;;;-1.18;100.00;97667.84;5110680;28;20218;-81
2022/12/12 11:36:55;;;;;;;28.53;17.83;;;;;;;-1.21;100.00;97663.59;5090037;28;20205;-78
2022/12/12 11:39:24;;;;;;;27.27;17.27;;;;;;;-1.26;100.00;97664.63;5090340;28;20205;-76